Airfield :
LOGIN :

Register | Disclaimer

   EN    FR    IT 

 










Legend :    VFR   Marginal VFR   IFR   Intensive IFR   Very Intensive IFR
Visi :
Ceiling :
>= 8 km
>= 3000ft
5 to 8 km
1000 to 3000 ft
1500m to 5 km
500 to 1000 ft
800 to 1500m
200 to 500 ft
< 800m
< 200 ft
Symbols :   Thunderstorms  Fog  Heavy snow  Heavy precipitations  Wind > 20 kt
SIGMETs :     Misc.  Thunderstorms  Icing  Turbulence  Mountain Waves  Volcanic Ashes






- Airport Elevation : 90 ft
- IATA code : NTE


LFRS - Nantes

CURRENT METAR :
  • 080930Z AUTO 23003KT 200V260 CAVOK 09/09 Q1012 TEMPO 4500 -SHRA BKN030TCU

EXPIRED METARs :
  • 080900Z AUTO 21004KT CAVOK 08/08 Q1011 TEMPO 4500 -SHRA BKN030TCU
  • 080830Z AUTO 20005KT 9999 4600 FEW013 BKN056 09/09 Q1011 TEMPO 4500 -SHRA BKN030TCU
  • 080800Z AUTO 21001KT 0600 0500 R03/0700N R21/3200U FG FEW044/// ///TCU 08/07 Q1010 TEMPO 4500 -SHRA SCT015 BKN025CB
  • 080730Z AUTO VRB01KT 7000 -RA FEW019/// BKN039/// BKN046/// ///TCU 09/08 Q1010 TEMPO 4500 -SHRA SCT015 BKN025CB
  • 080700Z AUTO 21003KT 9999 -RA FEW032/// BKN048/// OVC054/// //////TCU 09/08 Q1009 TEMPO 4000 SHRA SCT015 BKN025CB
  • 080630Z AUTO 20005KT 9999 FEW031 BKN048 OVC056 09/09 Q1009 TEMPO 4000 SHRA SCT015 BKN025CB
  • 080600Z AUTO 21004KT 9999 FEW029/// SCT041/// BKN054/// ///CB 09/09 Q1009 TEMPO 4000 SHRA
  • 080530Z AUTO VRB03KT 9999 FEW021/// BKN040/// BKN046/// //////CB 09/09 Q1009 TEMPO 4000 SHRA
  • 080500Z AUTO 29006KT 6000 -RA FEW019/// SCT026/// BKN058/// //////CB 09/09 Q1009 TEMPO 2000 TSRA

TAF TAF LFRS
Valid from the 08 at 06:00 until the 09 at 12:00 UTC


080500Z 0806/0912 VRB04KT 9999 SCT020 SCT040
TEMPO 0806/0809 4000 SHRA SCT015 BKN025CB
BECMG 0812/0814 27010KT
PROB30
TEMPO 0809/0814 4500 -SHRA BKN030TCU
BECMG 0816/0818 20005KT
PROB30
TEMPO 0821/0824 4500 -SHRA BKN030TCU
BECMG 0900/0903 21015G25KT 4000 -RA BKN013 BKN025
TEMPO 0903/0912 20020G35KT 2500 RA BKN007 OVC020
ATIS : +33 2 40 05 12 74



MET'MAP, your aeronautical weather chart ! - Copyright ORBIFLY December 2007 - Disclaimer

ORBIFLY MET'MAP TEAM :

Programming & Development : Alexandra Zaïnal
Original concept : Baudouin d'Aumeries
Technical & hardware support : Manuel Goepfert
Assistance : Marc-Olivier Méhu




SOURCES & CREDITS :

   NOAA